Foresthill, California
Current Conditions -  °F | °C
As of 11:35 PM on Saturday 22 Nov 2014 (Local Time) from KAUN Reporting Station
Clear Clear  
Wind Chill: 39°   Ceiling: Unl
Heat Index: 39°   Visibility: 10mi
Dew Point: 39°   Wind: 0mph
Humidity: 100%   Direction: NA
Pressure: 30.25"   Gusts: NA
Location:  39.02°N, 120.82°W
Report Text: KAUN 230735Z AUTO 00000KT 10SM CLR 04/04 A3025 RMK AO1
Loading
Personal Weather Stations






























Interactive Weather Map New forecast layout! Learn more

10-Day Weather Forecast

Advertisements
Track Severe Weather on mobile